createdAt,value
2018-11-01T00:00:07.173Z,4.62
2018-11-01T00:00:19.649Z,4.62
2018-11-01T00:00:32.340Z,4.62
2018-11-01T00:00:44.797Z,4.62
2018-11-01T00:00:57.214Z,4.62
2018-11-01T00:01:09.649Z,4.62
2018-11-01T00:01:22.073Z,4.62
2018-11-01T00:01:34.504Z,4.62
2018-11-01T00:01:46.935Z,4.62
2018-11-01T00:01:59.342Z,4.62
2018-11-01T00:02:11.765Z,4.62
2018-11-01T00:02:24.211Z,4.62
2018-11-01T00:02:36.625Z,4.62
2018-11-01T00:02:49.047Z,4.62
2018-11-01T00:03:01.474Z,4.62
2018-11-01T00:03:13.884Z,4.62
2018-11-01T00:03:26.292Z,4.62
2018-11-01T00:03:38.681Z,4.62
2018-11-01T00:03:51.091Z,4.62
2018-11-01T00:04:03.497Z,4.62
2018-11-01T00:04:15.911Z,4.62
2018-11-01T00:04:28.322Z,4.62
2018-11-01T00:04:40.877Z,4.62
2018-11-01T00:04:53.276Z,4.62
2018-11-01T00:05:05.696Z,4.62
2018-11-01T00:05:18.101Z,4.62
2018-11-01T00:05:30.511Z,4.62
2018-11-01T00:05:42.913Z,4.62
2018-11-01T00:05:55.327Z,4.62
2018-11-01T00:06:07.721Z,4.62
2018-11-01T00:06:20.166Z,4.62
2018-11-01T00:06:32.617Z,4.62
2018-11-01T00:06:45.008Z,4.62
2018-11-01T00:06:57.430Z,4.62
2018-11-01T00:07:09.852Z,4.62
2018-11-01T00:07:22.263Z,4.62
2018-11-01T00:07:34.663Z,4.62
2018-11-01T00:07:47.187Z,4.62
2018-11-01T00:07:59.608Z,4.62
2018-11-01T00:08:12.041Z,4.62
2018-11-01T00:08:24.459Z,4.62
2018-11-01T00:08:36.934Z,4.62
2018-11-01T00:08:49.358Z,4.62
2018-11-01T00:09:01.755Z,4.62
2018-11-01T00:09:14.266Z,4.62
2018-11-01T00:09:26.837Z,5.15
2018-11-01T00:09:39.231Z,5.15
2018-11-01T00:09:51.687Z,5.15
2018-11-01T00:10:04.098Z,5.15
2018-11-01T00:10:16.541Z,5.15
2018-11-01T00:10:28.970Z,5.15
2018-11-01T00:10:41.422Z,5.15
2018-11-01T00:10:53.853Z,5.15
2018-11-01T00:11:06.278Z,5.15
2018-11-01T00:11:18.699Z,5.15
2018-11-01T00:11:31.112Z,5.15
2018-11-01T00:11:43.550Z,5.15
2018-11-01T00:11:55.960Z,5.15
2018-11-01T00:12:08.392Z,5.15
2018-11-01T00:12:20.802Z,5.15
2018-11-01T00:12:33.329Z,5.15
2018-11-01T00:12:45.749Z,5.15
2018-11-01T00:12:58.162Z,5.15
2018-11-01T00:13:10.552Z,5.15
2018-11-01T00:13:22.969Z,5.15
2018-11-01T00:13:35.386Z,5.15
2018-11-01T00:13:47.808Z,5.15
2018-11-01T00:14:00.382Z,5.15
2018-11-01T00:14:12.907Z,5.15
2018-11-01T00:14:25.315Z,5.15
2018-11-01T00:14:37.735Z,5.15
2018-11-01T00:14:50.161Z,5.15
2018-11-01T00:15:02.608Z,5.15
2018-11-01T00:15:15.041Z,5.15
2018-11-01T00:15:27.466Z,5.15
2018-11-01T00:15:39.871Z,5.15
2018-11-01T00:15:52.262Z,5.15
2018-11-01T00:16:04.671Z,5.15
2018-11-01T00:16:17.080Z,5.15
2018-11-01T00:16:29.487Z,5.15
2018-11-01T00:16:41.890Z,5.15
2018-11-01T00:16:54.310Z,5.15
2018-11-01T00:17:06.877Z,5.15
2018-11-01T00:17:19.293Z,5.15
2018-11-01T00:17:31.733Z,5.15
2018-11-01T00:17:44.158Z,5.15
2018-11-01T00:17:56.563Z,5.15
2018-11-01T00:18:08.964Z,5.15
2018-11-01T00:18:21.364Z,5.15
2018-11-01T00:18:33.777Z,5.15
2018-11-01T00:18:46.201Z,5.15
2018-11-01T00:18:58.604Z,5.15
2018-11-01T00:19:11.008Z,5.15
2018-11-01T00:19:23.455Z,4.73
2018-11-01T00:19:35.877Z,4.73
2018-11-01T00:19:48.568Z,4.73
2018-11-01T00:20:00.966Z,4.73
2018-11-01T00:20:13.377Z,4.73
2018-11-01T00:20:26.251Z,4.73
2018-11-01T00:20:38.672Z,4.73
2018-11-01T00:20:51.068Z,4.73
2018-11-01T00:21:03.483Z,4.73
2018-11-01T00:21:15.901Z,4.73
2018-11-01T00:21:28.307Z,4.73
2018-11-01T00:21:40.782Z,4.73
2018-11-01T00:21:53.197Z,4.73
2018-11-01T00:22:05.644Z,4.73
2018-11-01T00:22:18.228Z,4.73
2018-11-01T00:22:30.625Z,4.73
2018-11-01T00:22:43.191Z,4.73
2018-11-01T00:22:55.664Z,4.73
2018-11-01T00:23:08.078Z,4.73
2018-11-01T00:23:20.482Z,4.73
2018-11-01T00:23:32.900Z,4.73
2018-11-01T00:23:45.333Z,4.73
2018-11-01T00:23:57.776Z,4.73
2018-11-01T00:24:10.215Z,4.73
2018-11-01T00:24:22.623Z,4.73
2018-11-01T00:24:35.185Z,4.73
2018-11-01T00:24:47.577Z,4.73
2018-11-01T00:25:00.168Z,4.73
2018-11-01T00:25:12.623Z,4.73
2018-11-01T00:25:25.030Z,4.73
2018-11-01T00:25:37.597Z,4.73
2018-11-01T00:25:50.014Z,4.73
2018-11-01T00:26:02.440Z,4.73
2018-11-01T00:26:14.843Z,4.73
2018-11-01T00:26:27.276Z,4.73
2018-11-01T00:26:39.683Z,4.73
2018-11-01T00:26:52.107Z,4.73
2018-11-01T00:27:04.512Z,4.73
2018-11-01T00:27:17.058Z,4.73
2018-11-01T00:27:29.491Z,4.73
2018-11-01T00:27:42.031Z,4.73
2018-11-01T00:27:54.442Z,4.73
2018-11-01T00:28:06.878Z,4.73
2018-11-01T00:28:19.314Z,4.73
2018-11-01T00:28:31.739Z,4.73
2018-11-01T00:28:44.170Z,4.73
2018-11-01T00:28:56.600Z,4.73
2018-11-01T00:29:09.018Z,4.73
2018-11-01T00:29:21.432Z,4.71
2018-11-01T00:29:33.851Z,4.71
2018-11-01T00:29:46.263Z,4.71
2018-11-01T00:29:58.677Z,4.71
2018-11-01T00:30:11.109Z,4.71
2018-11-01T00:30:23.538Z,4.71
2018-11-01T00:30:35.960Z,4.71
2018-11-01T00:30:48.359Z,4.71
2018-11-01T00:31:00.756Z,4.71
2018-11-01T00:31:13.751Z,4.71
2018-11-01T00:31:26.151Z,4.71
2018-11-01T00:31:38.575Z,4.71
2018-11-01T00:31:51.160Z,4.71
2018-11-01T00:32:03.562Z,4.71
2018-11-01T00:32:15.955Z,4.71
2018-11-01T00:32:28.371Z,4.71
2018-11-01T00:32:40.794Z,4.71
2018-11-01T00:32:53.218Z,4.71
2018-11-01T00:33:05.896Z,4.71
2018-11-01T00:33:18.314Z,4.71
2018-11-01T00:33:30.708Z,4.71
2018-11-01T00:33:43.121Z,4.71
2018-11-01T00:33:55.698Z,4.71
2018-11-01T00:34:08.119Z,4.71
2018-11-01T00:34:20.530Z,4.71
2018-11-01T00:34:32.945Z,4.71
2018-11-01T00:34:45.363Z,4.71
2018-11-01T00:34:57.794Z,4.71
2018-11-01T00:35:10.280Z,4.71
2018-11-01T00:35:22.823Z,4.71
2018-11-01T00:35:35.227Z,4.71
2018-11-01T00:35:47.758Z,4.71
2018-11-01T00:36:00.359Z,4.71
2018-11-01T00:36:12.770Z,4.71
2018-11-01T00:36:25.307Z,4.71
2018-11-01T00:36:37.717Z,4.71
2018-11-01T00:36:50.116Z,4.71
2018-11-01T00:37:02.500Z,4.71
2018-11-01T00:37:14.980Z,4.71
2018-11-01T00:37:27.404Z,4.71
2018-11-01T00:37:39.826Z,4.71
2018-11-01T00:37:52.267Z,4.71
2018-11-01T00:38:04.673Z,4.71
2018-11-01T00:38:17.103Z,4.71
2018-11-01T00:38:30.592Z,4.71
2018-11-01T00:38:43.002Z,4.71
2018-11-01T00:38:55.395Z,4.71
2018-11-01T00:39:07.826Z,4.71
2018-11-01T00:39:20.238Z,4.71
2018-11-01T00:39:32.679Z,4.81
2018-11-01T00:39:45.080Z,4.81
2018-11-01T00:39:57.496Z,4.81
2018-11-01T00:40:09.909Z,4.81
2018-11-01T00:40:22.312Z,4.81
2018-11-01T00:40:34.724Z,4.81
2018-11-01T00:40:47.116Z,4.81
2018-11-01T00:40:59.549Z,4.81
2018-11-01T00:41:11.981Z,4.81
2018-11-01T00:41:24.409Z,4.81
2018-11-01T00:41:36.840Z,4.81
2018-11-01T00:41:49.231Z,4.81
2018-11-01T00:42:01.642Z,4.81
2018-11-01T00:42:14.048Z,4.81
2018-11-01T00:42:26.467Z,4.81
2018-11-01T00:42:38.877Z,4.81
2018-11-01T00:42:51.324Z,4.81
2018-11-01T00:43:03.744Z,4.81
2018-11-01T00:43:16.143Z,4.81
2018-11-01T00:43:28.601Z,4.81
2018-11-01T00:43:41.020Z,4.81
2018-11-01T00:43:53.424Z,4.81
2018-11-01T00:44:05.819Z,4.81
2018-11-01T00:44:18.240Z,4.81
2018-11-01T00:44:30.632Z,4.81
2018-11-01T00:44:43.106Z,4.81
2018-11-01T00:44:55.577Z,4.81
2018-11-01T00:45:08.043Z,4.81
2018-11-01T00:45:20.515Z,4.81
2018-11-01T00:45:33.111Z,4.81
2018-11-01T00:45:45.505Z,4.81
2018-11-01T00:45:57.998Z,4.81
2018-11-01T00:46:10.414Z,4.81
2018-11-01T00:46:22.961Z,4.81
2018-11-01T00:46:35.348Z,4.81
2018-11-01T00:46:47.811Z,4.81
2018-11-01T00:47:00.223Z,4.81
2018-11-01T00:47:12.628Z,4.81
2018-11-01T00:47:25.038Z,4.81
2018-11-01T00:47:37.442Z,4.81
2018-11-01T00:47:49.857Z,4.81
2018-11-01T00:48:02.261Z,4.81
2018-11-01T00:48:14.729Z,4.81
2018-11-01T00:48:27.191Z,4.81
2018-11-01T00:48:39.616Z,4.81
2018-11-01T00:48:52.032Z,4.81
2018-11-01T00:49:04.619Z,4.81
2018-11-01T00:49:17.036Z,4.81
2018-11-01T00:49:29.444Z,4.58
2018-11-01T00:49:42.005Z,4.58
2018-11-01T00:49:54.403Z,4.58
2018-11-01T00:50:06.812Z,4.58
2018-11-01T00:50:19.233Z,4.58
2018-11-01T00:50:31.646Z,4.58
2018-11-01T00:50:44.106Z,4.58
2018-11-01T00:50:56.603Z,4.58
2018-11-01T00:51:09.035Z,4.58
2018-11-01T00:51:21.429Z,4.58
2018-11-01T00:51:33.894Z,4.58
2018-11-01T00:51:46.288Z,4.58
2018-11-01T00:51:58.696Z,4.58
2018-11-01T00:52:11.097Z,4.58
2018-11-01T00:52:23.494Z,4.58
2018-11-01T00:52:35.908Z,4.58
2018-11-01T00:52:48.433Z,4.58
2018-11-01T00:53:00.851Z,4.58
2018-11-01T00:53:13.259Z,4.58
2018-11-01T00:53:25.699Z,4.58
2018-11-01T00:53:38.123Z,4.58
2018-11-01T00:53:50.649Z,4.58
2018-11-01T00:54:03.061Z,4.58
2018-11-01T00:54:15.488Z,4.58
2018-11-01T00:54:27.969Z,4.58
2018-11-01T00:54:40.520Z,4.58
2018-11-01T00:54:52.927Z,4.58
2018-11-01T00:55:05.349Z,4.58
2018-11-01T00:55:17.776Z,4.58
2018-11-01T00:55:30.187Z,4.58
2018-11-01T00:55:42.604Z,4.58
2018-11-01T00:55:55.031Z,4.58
2018-11-01T00:56:07.544Z,4.58
2018-11-01T00:56:19.967Z,4.58
2018-11-01T00:56:32.396Z,4.58
2018-11-01T00:56:44.885Z,4.58
2018-11-01T00:56:57.303Z,4.58
2018-11-01T00:57:09.731Z,4.58
2018-11-01T00:57:22.130Z,4.58
2018-11-01T00:57:34.546Z,4.58
2018-11-01T00:57:46.953Z,4.58
2018-11-01T00:57:59.352Z,4.58
2018-11-01T00:58:11.749Z,4.58
2018-11-01T00:58:24.181Z,4.58
2018-11-01T00:58:36.595Z,4.58
2018-11-01T00:58:49.251Z,4.58
2018-11-01T00:59:01.656Z,4.58
2018-11-01T00:59:14.075Z,4.58
2018-11-01T00:59:26.481Z,5.2
2018-11-01T00:59:38.901Z,5.2
2018-11-01T00:59:51.298Z,5.2
2018-11-01T01:00:03.827Z,5.2
2018-11-01T01:00:16.254Z,5.2
2018-11-01T01:00:28.888Z,5.2
2018-11-01T01:00:41.321Z,5.2
2018-11-01T01:00:53.745Z,5.2
2018-11-01T01:01:06.176Z,5.2
2018-11-01T01:01:18.585Z,5.2
2018-11-01T01:01:31.006Z,5.2
2018-11-01T01:01:43.454Z,5.2
2018-11-01T01:01:55.868Z,5.2
2018-11-01T01:02:08.274Z,5.2
2018-11-01T01:02:20.779Z,5.2
2018-11-01T01:02:33.216Z,5.2
2018-11-01T01:02:45.621Z,5.2
2018-11-01T01:02:58.038Z,5.2
2018-11-01T01:03:10.495Z,5.2
2018-11-01T01:03:22.921Z,5.2
2018-11-01T01:03:35.337Z,5.2
2018-11-01T01:03:48.039Z,5.2
2018-11-01T01:04:00.509Z,5.2
2018-11-01T01:04:12.943Z,5.2
2018-11-01T01:04:25.339Z,5.2
2018-11-01T01:04:37.907Z,5.2
2018-11-01T01:04:50.300Z,5.2
2018-11-01T01:05:02.724Z,5.2
2018-11-01T01:05:15.167Z,5.2
2018-11-01T01:05:27.569Z,5.2
2018-11-01T01:05:39.984Z,5.2
2018-11-01T01:05:52.381Z,5.2
2018-11-01T01:06:04.800Z,5.2
2018-11-01T01:06:17.218Z,5.2
2018-11-01T01:06:29.872Z,5.2
2018-11-01T01:06:42.278Z,5.2
2018-11-01T01:06:54.876Z,5.2
2018-11-01T01:07:07.279Z,5.2
2018-11-01T01:07:19.698Z,5.2
2018-11-01T01:07:32.106Z,5.2
2018-11-01T01:07:44.537Z,5.2
2018-11-01T01:07:56.954Z,5.2
2018-11-01T01:08:09.357Z,5.2
2018-11-01T01:08:21.783Z,5.2
2018-11-01T01:08:34.208Z,5.2
2018-11-01T01:08:46.626Z,5.2
2018-11-01T01:08:59.038Z,5.2
2018-11-01T01:09:11.452Z,5.2
2018-11-01T01:09:23.895Z,5.04
2018-11-01T01:09:36.321Z,5.04
2018-11-01T01:09:48.728Z,5.04
2018-11-01T01:10:01.171Z,5.04
2018-11-01T01:10:13.609Z,5.04
2018-11-01T01:10:26.104Z,5.04
2018-11-01T01:10:38.569Z,5.04
2018-11-01T01:10:50.979Z,5.04
2018-11-01T01:11:03.389Z,5.04
2018-11-01T01:11:15.818Z,5.04
2018-11-01T01:11:28.212Z,5.04
2018-11-01T01:11:40.596Z,5.04
2018-11-01T01:11:53.003Z,5.04
2018-11-01T01:12:05.404Z,5.04
2018-11-01T01:12:17.813Z,5.04
2018-11-01T01:12:30.425Z,5.04
2018-11-01T01:12:42.879Z,5.04
2018-11-01T01:12:55.311Z,5.04
2018-11-01T01:13:07.755Z,5.04
2018-11-01T01:13:20.195Z,5.04
2018-11-01T01:13:32.599Z,5.04
2018-11-01T01:13:45.052Z,5.04
2018-11-01T01:13:57.458Z,5.04
2018-11-01T01:14:10.046Z,5.04
2018-11-01T01:14:22.441Z,5.04
2018-11-01T01:14:34.857Z,5.04
2018-11-01T01:14:47.261Z,5.04
2018-11-01T01:14:59.704Z,5.04
2018-11-01T01:15:12.144Z,5.04
2018-11-01T01:15:24.635Z,5.04
2018-11-01T01:15:37.102Z,5.04
2018-11-01T01:15:49.548Z,5.04
2018-11-01T01:16:01.951Z,5.04
2018-11-01T01:16:14.363Z,5.04
2018-11-01T01:16:26.832Z,5.04
2018-11-01T01:16:39.248Z,5.04
2018-11-01T01:16:51.712Z,5.04
2018-11-01T01:17:04.117Z,5.04
2018-11-01T01:17:16.500Z,5.04
2018-11-01T01:17:28.921Z,5.04
2018-11-01T01:17:41.350Z,5.04
2018-11-01T01:17:53.771Z,5.04
2018-11-01T01:18:06.173Z,5.04
2018-11-01T01:18:18.593Z,5.04
2018-11-01T01:18:31.041Z,5.04
2018-11-01T01:18:43.622Z,5.04
2018-11-01T01:18:56.884Z,5.04
2018-11-01T01:19:10.835Z,5.04
2018-11-01T01:19:23.261Z,5.04
2018-11-01T01:19:35.693Z,5.45
2018-11-01T01:19:48.120Z,5.45
2018-11-01T01:20:00.542Z,5.45
2018-11-01T01:20:12.979Z,5.45
2018-11-01T01:20:25.440Z,5.45
2018-11-01T01:20:37.869Z,5.45
2018-11-01T01:20:50.305Z,5.45
2018-11-01T01:21:02.699Z,5.45
2018-11-01T01:21:15.301Z,5.45
2018-11-01T01:21:27.706Z,5.45
2018-11-01T01:21:40.165Z,5.45
2018-11-01T01:21:52.605Z,5.45
2018-11-01T01:22:05.050Z,5.45
2018-11-01T01:22:17.661Z,5.45
2018-11-01T01:22:30.081Z,5.45
2018-11-01T01:22:42.656Z,5.45
2018-11-01T01:22:55.082Z,5.45
2018-11-01T01:23:07.556Z,5.45
2018-11-01T01:23:19.988Z,5.45
2018-11-01T01:23:32.401Z,5.45
2018-11-01T01:23:44.887Z,5.45
2018-11-01T01:23:57.292Z,5.45
2018-11-01T01:24:09.696Z,5.45
2018-11-01T01:24:22.121Z,5.45
2018-11-01T01:24:34.730Z,5.45
2018-11-01T01:24:47.134Z,5.45
2018-11-01T01:24:59.671Z,5.45
2018-11-01T01:25:12.076Z,5.45
2018-11-01T01:25:24.501Z,5.45
2018-11-01T01:25:37.165Z,5.45
2018-11-01T01:25:49.590Z,5.45
2018-11-01T01:26:02.142Z,5.45
2018-11-01T01:26:14.550Z,5.45
2018-11-01T01:26:26.950Z,5.45
2018-11-01T01:26:39.376Z,5.45
2018-11-01T01:26:51.784Z,5.45
2018-11-01T01:27:04.202Z,5.45
2018-11-01T01:27:17.115Z,5.45
2018-11-01T01:27:29.574Z,5.45
2018-11-01T01:27:42.014Z,5.45
2018-11-01T01:27:54.466Z,5.45
2018-11-01T01:28:06.894Z,5.45
2018-11-01T01:28:19.358Z,5.45
2018-11-01T01:28:31.777Z,5.45
2018-11-01T01:28:44.274Z,5.45
2018-11-01T01:28:56.675Z,5.45
2018-11-01T01:29:09.096Z,5.45
2018-11-01T01:29:21.510Z,5.45
2018-11-01T01:29:33.980Z,6.25
2018-11-01T01:29:46.400Z,6.25
2018-11-01T01:29:58.851Z,6.25
2018-11-01T01:30:11.255Z,6.25
2018-11-01T01:30:23.696Z,6.25
2018-11-01T01:30:36.114Z,6.25
2018-11-01T01:30:48.531Z,6.25
2018-11-01T01:31:01.164Z,6.25
2018-11-01T01:31:13.568Z,6.25
2018-11-01T01:31:25.991Z,6.25
2018-11-01T01:31:38.451Z,6.25
2018-11-01T01:31:50.931Z,6.25
2018-11-01T01:32:03.338Z,6.25
2018-11-01T01:32:15.737Z,6.25
2018-11-01T01:32:28.240Z,6.25
2018-11-01T01:32:40.702Z,6.25
2018-11-01T01:32:53.148Z,6.25
2018-11-01T01:33:05.575Z,6.25
2018-11-01T01:33:18.009Z,6.25
2018-11-01T01:33:30.481Z,6.25
2018-11-01T01:33:42.875Z,6.25
2018-11-01T01:33:55.316Z,6.25
2018-11-01T01:34:07.899Z,6.25
2018-11-01T01:34:20.414Z,6.25
2018-11-01T01:34:33.405Z,6.25
2018-11-01T01:34:47.554Z,6.25
2018-11-01T01:35:00.094Z,6.25
2018-11-01T01:35:12.556Z,6.25
2018-11-01T01:35:25.202Z,6.25
2018-11-01T01:35:37.653Z,6.25
2018-11-01T01:35:50.170Z,6.25
2018-11-01T01:36:02.610Z,6.25
2018-11-01T01:36:15.052Z,6.25
2018-11-01T01:36:27.591Z,6.25
2018-11-01T01:36:40.006Z,6.25
2018-11-01T01:36:52.425Z,6.25
2018-11-01T01:37:04.846Z,6.25
2018-11-01T01:37:17.287Z,6.25
2018-11-01T01:37:29.729Z,6.25
2018-11-01T01:37:42.142Z,6.25
2018-11-01T01:37:54.570Z,6.25
2018-11-01T01:38:06.992Z,6.25
2018-11-01T01:38:19.399Z,6.25
2018-11-01T01:38:31.866Z,6.25
2018-11-01T01:38:44.276Z,6.25
2018-11-01T01:38:56.688Z,6.25
2018-11-01T01:39:09.133Z,6.25
2018-11-01T01:39:21.538Z,6.25
2018-11-01T01:39:33.938Z,6.65
2018-11-01T01:39:46.340Z,6.65
2018-11-01T01:39:58.747Z,6.65
2018-11-01T01:40:11.152Z,6.65
2018-11-01T01:40:23.600Z,6.65
2018-11-01T01:40:36.022Z,6.65
2018-11-01T01:40:48.445Z,6.65
2018-11-01T01:41:00.877Z,6.65
2018-11-01T01:41:13.308Z,6.65
2018-11-01T01:41:25.703Z,6.65
2018-11-01T01:41:38.118Z,6.65
2018-11-01T01:41:50.526Z,6.65
2018-11-01T01:42:02.923Z,6.65
2018-11-01T01:42:15.338Z,6.65
2018-11-01T01:42:27.731Z,6.65
2018-11-01T01:42:40.151Z,6.65
2018-11-01T01:42:52.569Z,6.65
2018-11-01T01:43:04.981Z,6.65
2018-11-01T01:43:17.420Z,6.65
2018-11-01T01:43:29.808Z,6.65
2018-11-01T01:43:42.257Z,6.65
2018-11-01T01:43:54.694Z,6.65
2018-11-01T01:44:07.129Z,6.65
2018-11-01T01:44:19.541Z,6.65
2018-11-01T01:44:31.949Z,6.65
2018-11-01T01:44:44.365Z,6.65
2018-11-01T01:44:56.789Z,6.65
2018-11-01T01:45:09.337Z,6.65
2018-11-01T01:45:21.826Z,6.65
2018-11-01T01:45:34.373Z,6.65
2018-11-01T01:45:46.784Z,6.65
2018-11-01T01:45:59.311Z,6.65
2018-11-01T01:46:11.830Z,6.65
2018-11-01T01:46:24.394Z,6.65
2018-11-01T01:46:36.838Z,6.65
2018-11-01T01:46:49.256Z,6.65
2018-11-01T01:47:01.667Z,6.65
2018-11-01T01:47:14.077Z,6.65
2018-11-01T01:47:26.478Z,6.65
2018-11-01T01:47:38.907Z,6.65
2018-11-01T01:47:51.316Z,6.65
2018-11-01T01:48:03.719Z,6.65
2018-11-01T01:48:16.108Z,6.65
2018-11-01T01:48:28.542Z,6.65
2018-11-01T01:48:40.988Z,6.65
2018-11-01T01:48:53.372Z,6.65
2018-11-01T01:49:05.908Z,6.65
2018-11-01T01:49:18.307Z,6.65
2018-11-01T01:49:30.787Z,6.25
2018-11-01T01:49:43.330Z,6.25
2018-11-01T01:49:55.731Z,6.25
2018-11-01T01:50:08.167Z,6.25
2018-11-01T01:50:21.280Z,6.25
2018-11-01T01:50:34.285Z,6.25
2018-11-01T01:50:47.981Z,6.25
2018-11-01T01:51:01.265Z,6.25
2018-11-01T01:51:13.692Z,6.25
2018-11-01T01:51:26.109Z,6.25
2018-11-01T01:51:38.511Z,6.25
2018-11-01T01:51:50.920Z,6.25
2018-11-01T01:52:03.342Z,6.25
2018-11-01T01:52:15.764Z,6.25
2018-11-01T01:52:28.171Z,6.25
2018-11-01T01:52:40.572Z,6.25
2018-11-01T01:52:53.081Z,6.25
2018-11-01T01:53:05.476Z,6.25
2018-11-01T01:53:17.899Z,6.25
2018-11-01T01:53:30.307Z,6.25
2018-11-01T01:53:42.846Z,6.25
2018-11-01T01:53:55.256Z,6.25
2018-11-01T01:54:07.669Z,6.25
2018-11-01T01:54:20.074Z,6.25
2018-11-01T01:54:32.529Z,6.25
2018-11-01T01:54:44.939Z,6.25
2018-11-01T01:54:57.391Z,6.25
2018-11-01T01:55:09.805Z,6.25
2018-11-01T01:55:22.236Z,6.25
2018-11-01T01:55:34.650Z,6.25
2018-11-01T01:55:47.136Z,6.25
2018-11-01T01:55:59.542Z,6.25
2018-11-01T01:56:11.947Z,6.25
2018-11-01T01:56:24.347Z,6.25
2018-11-01T01:56:36.751Z,6.25
2018-11-01T01:56:49.141Z,6.25
2018-11-01T01:57:01.618Z,6.25
2018-11-01T01:57:14.032Z,6.25
2018-11-01T01:57:26.438Z,6.25
2018-11-01T01:57:38.875Z,6.25
2018-11-01T01:57:51.598Z,6.25
2018-11-01T01:58:04.016Z,6.25
2018-11-01T01:58:16.467Z,6.25
2018-11-01T01:58:28.880Z,6.25
2018-11-01T01:58:41.285Z,6.25
2018-11-01T01:58:53.693Z,6.25
2018-11-01T01:59:06.097Z,6.25
2018-11-01T01:59:18.524Z,6.25
2018-11-01T01:59:30.949Z,6.78
2018-11-01T01:59:43.363Z,6.78
2018-11-01T01:59:55.923Z,6.78
2018-11-01T02:00:08.355Z,6.78
2018-11-01T02:00:20.805Z,6.78
2018-11-01T02:00:33.379Z,6.78
2018-11-01T02:00:45.812Z,6.78
2018-11-01T02:00:58.235Z,6.78
2018-11-01T02:01:10.653Z,6.78
2018-11-01T02:01:23.081Z,6.78
2018-11-01T02:01:35.495Z,6.78
2018-11-01T02:01:47.923Z,6.78
2018-11-01T02:02:00.352Z,6.78
2018-11-01T02:02:12.771Z,6.78
2018-11-01T02:02:25.211Z,6.78
2018-11-01T02:02:37.636Z,6.78
2018-11-01T02:02:50.054Z,6.78
2018-11-01T02:03:02.470Z,6.78
2018-11-01T02:03:14.877Z,6.78
2018-11-01T02:03:27.265Z,6.78
2018-11-01T02:03:39.672Z,6.78
2018-11-01T02:03:52.083Z,6.78
2018-11-01T02:04:04.497Z,6.78
2018-11-01T02:04:16.917Z,6.78
2018-11-01T02:04:29.497Z,6.78
2018-11-01T02:04:41.904Z,6.78
2018-11-01T02:04:54.443Z,6.78
2018-11-01T02:05:06.924Z,6.78
2018-11-01T02:05:19.351Z,6.78
2018-11-01T02:05:31.811Z,6.78
2018-11-01T02:05:44.235Z,6.78
2018-11-01T02:05:56.641Z,6.78
2018-11-01T02:06:09.049Z,6.78
2018-11-01T02:06:21.459Z,6.78
2018-11-01T02:06:33.868Z,6.78
2018-11-01T02:06:46.378Z,6.78
2018-11-01T02:06:58.805Z,6.78
2018-11-01T02:07:11.278Z,6.78
2018-11-01T02:07:23.662Z,6.78
2018-11-01T02:07:36.057Z,6.78
2018-11-01T02:07:48.502Z,6.78
2018-11-01T02:08:00.922Z,6.78
2018-11-01T02:08:13.339Z,6.78
2018-11-01T02:08:25.766Z,6.78
2018-11-01T02:08:38.182Z,6.78
2018-11-01T02:08:50.600Z,6.78
2018-11-01T02:09:03.025Z,6.78
2018-11-01T02:09:15.437Z,6.78
2018-11-01T02:09:27.852Z,7.33
2018-11-01T02:09:40.249Z,7.33
2018-11-01T02:09:52.669Z,7.33
2018-11-01T02:10:05.099Z,7.33
2018-11-01T02:10:17.536Z,7.33
2018-11-01T02:10:29.952Z,7.33
2018-11-01T02:10:42.429Z,7.33
2018-11-01T02:10:54.823Z,7.33
2018-11-01T02:11:07.242Z,7.33
2018-11-01T02:11:19.688Z,7.33
2018-11-01T02:11:32.351Z,7.33
2018-11-01T02:11:45.831Z,7.33
2018-11-01T02:11:59.471Z,7.33
2018-11-01T02:12:11.916Z,7.33
2018-11-01T02:12:24.357Z,7.33
2018-11-01T02:12:36.902Z,7.33
2018-11-01T02:12:49.332Z,7.33
2018-11-01T02:13:01.754Z,7.33
2018-11-01T02:13:14.169Z,7.33
2018-11-01T02:13:26.610Z,7.33
2018-11-01T02:13:39.021Z,7.33
2018-11-01T02:13:51.453Z,7.33
2018-11-01T02:14:04.500Z,7.33
2018-11-01T02:14:16.961Z,7.33
2018-11-01T02:14:29.368Z,7.33
2018-11-01T02:14:41.938Z,7.33
2018-11-01T02:14:54.360Z,7.33
2018-11-01T02:15:06.779Z,7.33
2018-11-01T02:15:19.214Z,7.33
2018-11-01T02:15:31.643Z,7.33
2018-11-01T02:15:44.049Z,7.33
2018-11-01T02:15:56.450Z,7.33
2018-11-01T02:16:08.990Z,7.33
2018-11-01T02:16:21.433Z,7.33
2018-11-01T02:16:33.884Z,7.33
2018-11-01T02:16:46.300Z,7.33
2018-11-01T02:16:58.693Z,7.33
2018-11-01T02:17:11.111Z,7.33
2018-11-01T02:17:23.525Z,7.33
2018-11-01T02:17:35.964Z,7.33
2018-11-01T02:17:48.385Z,7.33
2018-11-01T02:18:00.793Z,7.33
2018-11-01T02:18:13.249Z,7.33
2018-11-01T02:18:25.651Z,7.33
2018-11-01T02:18:38.081Z,7.33
2018-11-01T02:18:50.517Z,7.33
2018-11-01T02:19:02.920Z,7.33
2018-11-01T02:19:15.323Z,7.33
2018-11-01T02:19:27.736Z,6.62
2018-11-01T02:19:40.159Z,6.62
2018-11-01T02:19:52.583Z,6.62
2018-11-01T02:20:04.971Z,6.62
2018-11-01T02:20:17.391Z,6.62
2018-11-01T02:20:29.815Z,6.62
2018-11-01T02:20:42.259Z,6.62
2018-11-01T02:20:54.663Z,6.62
2018-11-01T02:21:07.081Z,6.62
2018-11-01T02:21:19.486Z,6.62
2018-11-01T02:21:31.911Z,6.62
2018-11-01T02:21:44.336Z,6.62
2018-11-01T02:21:56.757Z,6.62
2018-11-01T02:22:09.271Z,6.62
2018-11-01T02:22:21.693Z,6.62
2018-11-01T02:22:34.106Z,6.62
2018-11-01T02:22:46.663Z,6.62
2018-11-01T02:22:59.097Z,6.62
2018-11-01T02:23:11.674Z,6.62
2018-11-01T02:23:24.134Z,6.62
2018-11-01T02:23:36.567Z,6.62
2018-11-01T02:23:48.963Z,6.62
2018-11-01T02:24:01.386Z,6.62
2018-11-01T02:24:13.788Z,6.62
2018-11-01T02:24:26.352Z,6.62
2018-11-01T02:24:38.794Z,6.62
2018-11-01T02:24:51.192Z,6.62
2018-11-01T02:25:03.724Z,6.62
2018-11-01T02:25:16.139Z,6.62
2018-11-01T02:25:28.822Z,6.62
2018-11-01T02:25:41.226Z,6.62
2018-11-01T02:25:53.650Z,6.62
2018-11-01T02:26:06.073Z,6.62
2018-11-01T02:26:18.581Z,6.62
2018-11-01T02:26:31.046Z,6.62
2018-11-01T02:26:43.465Z,6.62
2018-11-01T02:26:56.122Z,6.62
2018-11-01T02:27:08.693Z,6.62
2018-11-01T02:27:21.252Z,6.62
2018-11-01T02:27:33.699Z,6.62
2018-11-01T02:27:46.104Z,6.62
2018-11-01T02:27:58.514Z,6.62
2018-11-01T02:28:10.931Z,6.62
2018-11-01T02:28:23.349Z,6.62
2018-11-01T02:28:35.753Z,6.62
2018-11-01T02:28:48.152Z,6.62
2018-11-01T02:29:00.571Z,6.62
2018-11-01T02:29:12.970Z,6.62
2018-11-01T02:29:25.386Z,6.62
2018-11-01T02:29:37.898Z,6.87
2018-11-01T02:29:50.307Z,6.87
2018-11-01T02:30:02.722Z,6.87
2018-11-01T02:30:15.268Z,6.87
2018-11-01T02:30:27.797Z,6.87
2018-11-01T02:30:40.352Z,6.87
2018-11-01T02:30:52.981Z,6.87
2018-11-01T02:31:05.461Z,6.87
2018-11-01T02:31:17.894Z,6.87
2018-11-01T02:31:30.811Z,6.87
2018-11-01T02:31:43.284Z,6.87
2018-11-01T02:31:55.749Z,6.87
2018-11-01T02:32:08.212Z,6.87
2018-11-01T02:32:20.633Z,6.87
2018-11-01T02:32:33.078Z,6.87
2018-11-01T02:32:45.540Z,6.87
2018-11-01T02:32:57.964Z,6.87
2018-11-01T02:33:10.406Z,6.87
2018-11-01T02:33:22.851Z,6.87
2018-11-01T02:33:35.267Z,6.87
2018-11-01T02:33:47.694Z,6.87
2018-11-01T02:34:00.114Z,6.87
2018-11-01T02:34:12.576Z,6.87
2018-11-01T02:34:25.066Z,6.87
2018-11-01T02:34:37.511Z,6.87
2018-11-01T02:34:49.933Z,6.87
2018-11-01T02:35:02.345Z,6.87
2018-11-01T02:35:14.795Z,6.87
2018-11-01T02:35:27.401Z,6.87
2018-11-01T02:35:40.028Z,6.87
2018-11-01T02:35:52.465Z,6.87
2018-11-01T02:36:04.896Z,6.87
2018-11-01T02:36:17.362Z,6.87
2018-11-01T02:36:29.887Z,6.87
2018-11-01T02:36:42.382Z,6.87
2018-11-01T02:36:54.806Z,6.87
2018-11-01T02:37:07.207Z,6.87
2018-11-01T02:37:19.624Z,6.87
2018-11-01T02:37:32.076Z,6.87
2018-11-01T02:37:44.689Z,6.87
2018-11-01T02:37:58.545Z,6.87
2018-11-01T02:38:12.908Z,6.87
2018-11-01T02:38:26.479Z,6.87
2018-11-01T02:38:40.321Z,6.87
2018-11-01T02:38:54.403Z,6.87
2018-11-01T02:39:06.832Z,6.87
2018-11-01T02:39:19.271Z,6.87
2018-11-01T02:39:31.697Z,6.95
2018-11-01T02:39:44.155Z,6.95
2018-11-01T02:39:56.581Z,6.95
2018-11-01T02:40:09.013Z,6.95
2018-11-01T02:40:21.498Z,6.95
2018-11-01T02:40:33.926Z,6.95
2018-11-01T02:40:46.379Z,6.95
2018-11-01T02:40:58.797Z,6.95
2018-11-01T02:41:11.221Z,6.95
2018-11-01T02:41:23.704Z,6.95
2018-11-01T02:41:36.208Z,6.95
2018-11-01T02:41:48.630Z,6.95
2018-11-01T02:42:01.071Z,6.95
2018-11-01T02:42:13.504Z,6.95
2018-11-01T02:42:25.926Z,6.95
2018-11-01T02:42:38.348Z,6.95
2018-11-01T02:42:50.807Z,6.95
2018-11-01T02:43:03.297Z,6.95
2018-11-01T02:43:15.731Z,6.95
2018-11-01T02:43:28.194Z,6.95
2018-11-01T02:43:40.651Z,6.95
2018-11-01T02:43:53.081Z,6.95
2018-11-01T02:44:05.509Z,6.95
2018-11-01T02:44:17.934Z,6.95
2018-11-01T02:44:30.386Z,6.95
2018-11-01T02:44:42.824Z,6.95
2018-11-01T02:44:55.239Z,6.95
2018-11-01T02:45:07.672Z,6.95
2018-11-01T02:45:20.126Z,6.95
2018-11-01T02:45:32.617Z,6.95
2018-11-01T02:45:45.046Z,6.95
2018-11-01T02:45:57.611Z,6.95
2018-11-01T02:46:10.036Z,6.95
2018-11-01T02:46:22.640Z,6.95